CPP weather

Coposa Airport
Pica, Tarapacá Region, Chile

Public forecast

Using degrees Celsius for public forecast. Weather courtesy of forecast.io.

METAR (pilot weather report)

Closest report is Diego Aracena Airport, 85.1 nm (157.7 km) W. Retrieved 2019/05/25 20:00 UTC (22 minutes ago):

SCDA 252000Z 27007KT 9999 BKN034 19/11 Q1013

TAF (pilot weather forecast)

Closest forecast is Diego Aracena Airport, 85.1 nm (157.7 km) W. Retrieved 2019/05/25 18:00 UTC (2 hours ago):

TAF SCDA 251641Z 2518/2618 26007KT 9999 BKN030 TX19/2519Z TN15/2608Z BECMG 2519/2521 21012KT SCT035 BECMG 2600/2602 26004KT OVC030 BECMG 2610/2612 21007KT BKN030 BECMG 2614/2616 24012KT SCT035